createdAt,value
2022-11-06T00:00:49.789Z,99414.00
2022-11-06T00:02:23.135Z,99415.00
2022-11-06T00:03:56.490Z,99407.00
2022-11-06T00:05:48.413Z,99408.00
2022-11-06T00:07:20.604Z,99404.00
2022-11-06T00:08:53.856Z,99405.00
2022-11-06T00:10:27.301Z,99408.00
2022-11-06T00:12:00.604Z,99404.00
2022-11-06T00:13:35.332Z,99399.00
2022-11-06T00:15:09.733Z,99399.00
2022-11-06T00:16:44.479Z,99408.00
2022-11-06T00:18:18.020Z,99398.00
2022-11-06T00:19:51.293Z,99400.00
2022-11-06T00:21:29.697Z,99398.00
2022-11-06T00:23:02.878Z,99392.00
2022-11-06T00:24:36.083Z,99389.00
2022-11-06T00:26:11.740Z,99396.00
2022-11-06T00:27:44.942Z,99386.00
2022-11-06T00:29:20.398Z,99386.00
2022-11-06T00:31:03.335Z,99375.00
2022-11-06T00:32:36.663Z,99380.00
2022-11-06T00:34:11.466Z,99388.00
2022-11-06T00:35:44.922Z,99391.00
2022-11-06T00:37:18.064Z,99386.00
2022-11-06T00:38:53.666Z,99393.00
2022-11-06T00:40:26.869Z,99392.00
2022-11-06T00:42:00.266Z,99396.00
2022-11-06T00:43:34.016Z,99403.00
2022-11-06T00:45:10.785Z,99405.00
2022-11-06T00:46:44.181Z,99392.00
2022-11-06T00:48:17.406Z,99387.00
2022-11-06T00:49:50.614Z,99383.00
2022-11-06T00:51:28.732Z,99386.00
2022-11-06T00:53:02.000Z,99384.00
2022-11-06T00:54:36.213Z,99379.00
2022-11-06T00:56:13.197Z,99381.00
2022-11-06T00:57:46.338Z,99382.00
2022-11-06T00:59:19.864Z,99389.00
2022-11-06T01:00:54.590Z,99383.00
2022-11-06T01:02:27.929Z,99391.00
2022-11-06T01:04:04.422Z,99387.00
2022-11-06T01:05:37.639Z,99387.00
2022-11-06T01:07:10.819Z,99384.00
2022-11-06T01:08:44.002Z,99378.00
2022-11-06T01:10:17.388Z,99392.00
2022-11-06T01:12:12.882Z,99382.00
2022-11-06T01:13:49.672Z,99381.00
2022-11-06T01:15:22.877Z,99376.00
2022-11-06T01:16:57.568Z,99386.00
2022-11-06T01:18:30.119Z,99386.00
2022-11-06T01:20:06.426Z,99380.00
2022-11-06T01:21:42.443Z,99393.00
2022-11-06T01:23:15.601Z,99390.00
2022-11-06T01:24:48.821Z,99383.00
2022-11-06T01:26:37.372Z,99390.00
2022-11-06T01:28:12.018Z,99385.00
2022-11-06T01:29:46.171Z,99392.00
2022-11-06T01:31:23.673Z,99395.00
2022-11-06T01:32:58.468Z,99383.00
2022-11-06T01:34:31.879Z,99383.00
2022-11-06T01:36:06.699Z,99389.00
2022-11-06T01:37:39.871Z,99376.00
2022-11-06T01:39:16.436Z,99373.00
2022-11-06T01:40:51.556Z,99375.00
2022-11-06T01:42:24.728Z,99369.00
2022-11-06T01:44:00.483Z,99366.00
2022-11-06T01:45:40.775Z,99357.00
2022-11-06T01:47:24.572Z,99359.00
2022-11-06T01:49:04.780Z,99352.00
2022-11-06T01:50:39.139Z,99355.00
2022-11-06T01:52:14.314Z,99351.00
2022-11-06T01:53:48.046Z,99357.00
2022-11-06T01:55:29.757Z,99360.00
2022-11-06T01:57:04.598Z,99350.00
2022-11-06T01:58:41.525Z,99347.00
2022-11-06T02:00:20.931Z,99346.00
2022-11-06T02:01:54.968Z,99345.00
2022-11-06T02:03:28.396Z,99338.00
2022-11-06T02:05:02.102Z,99334.00
2022-11-06T02:06:35.868Z,99330.00
2022-11-06T02:08:14.560Z,99329.00
2022-11-06T02:09:48.595Z,99320.00
2022-11-06T02:11:22.258Z,99320.00
2022-11-06T02:13:13.212Z,99320.00
2022-11-06T02:15:01.707Z,99330.00
2022-11-06T02:16:45.875Z,99321.00
2022-11-06T02:19:04.982Z,99315.00
2022-11-06T02:20:53.429Z,99319.00
2022-11-06T02:22:42.925Z,99307.00
2022-11-06T02:25:09.441Z,99311.00
2022-11-06T02:27:04.262Z,99312.00
2022-11-06T02:28:45.369Z,99314.00
2022-11-06T02:30:19.870Z,99320.00
2022-11-06T02:31:57.036Z,99319.00
2022-11-06T02:33:35.619Z,99329.00
2022-11-06T02:35:23.427Z,99324.00
2022-11-06T02:37:02.108Z,99324.00
2022-11-06T02:38:41.412Z,99319.00
2022-11-06T02:40:17.141Z,99315.00
2022-11-06T02:41:54.288Z,99316.00
2022-11-06T02:43:33.294Z,99313.00
2022-11-06T02:45:11.906Z,99299.00
2022-11-06T02:46:51.689Z,99312.00
2022-11-06T02:48:32.269Z,99308.00
2022-11-06T02:50:12.865Z,99310.00
2022-11-06T02:51:51.814Z,99317.00
2022-11-06T02:53:27.518Z,99300.00
2022-11-06T02:55:10.612Z,99294.00
2022-11-06T02:56:47.569Z,99308.00
2022-11-06T02:58:27.117Z,99306.00
2022-11-06T03:00:07.041Z,99317.00
2022-11-06T03:01:45.691Z,99317.00
2022-11-06T03:03:26.961Z,99320.00
2022-11-06T03:05:07.591Z,99326.00
2022-11-06T03:06:45.551Z,99314.00
2022-11-06T03:08:27.372Z,99323.00
2022-11-06T03:10:00.841Z,99314.00
2022-11-06T03:11:38.867Z,99313.00
2022-11-06T03:13:20.347Z,99314.00
2022-11-06T03:15:04.765Z,99317.00
2022-11-06T03:16:50.348Z,99315.00
2022-11-06T03:18:34.375Z,99308.00
2022-11-06T03:20:21.553Z,99305.00
2022-11-06T03:22:05.051Z,99298.00
2022-11-06T03:23:48.367Z,99304.00
2022-11-06T03:25:27.629Z,99297.00
2022-11-06T03:27:10.480Z,99295.00
2022-11-06T03:28:54.200Z,99299.00
2022-11-06T03:30:29.018Z,99300.00
2022-11-06T03:32:13.232Z,99300.00
2022-11-06T03:33:53.690Z,99299.00
2022-11-06T03:35:36.064Z,99295.00
2022-11-06T03:37:16.821Z,99282.00
2022-11-06T03:39:00.281Z,99273.00
2022-11-06T03:40:41.084Z,99276.00
2022-11-06T03:42:21.315Z,99276.00
2022-11-06T03:43:58.777Z,99274.00
2022-11-06T03:45:35.841Z,99270.00
2022-11-06T03:47:14.962Z,99270.00
2022-11-06T03:48:53.363Z,99263.00
2022-11-06T03:50:33.001Z,99258.00
2022-11-06T03:52:10.702Z,99255.00
2022-11-06T03:53:50.799Z,99253.00
2022-11-06T03:55:29.321Z,99260.00
2022-11-06T03:57:10.719Z,99266.00
2022-11-06T03:58:48.903Z,99264.00
2022-11-06T04:00:22.682Z,99263.00
2022-11-06T04:01:59.835Z,99255.00
2022-11-06T04:03:43.061Z,99254.00
2022-11-06T04:05:23.822Z,99260.00
2022-11-06T04:07:00.750Z,99268.00
2022-11-06T04:08:52.638Z,99272.00
2022-11-06T04:10:42.756Z,99274.00
2022-11-06T04:12:41.115Z,99287.00
2022-11-06T04:14:17.516Z,99291.00
2022-11-06T04:15:55.042Z,99293.00
2022-11-06T04:17:31.102Z,99279.00
2022-11-06T04:19:07.182Z,99288.00
2022-11-06T04:21:08.645Z,99284.00
2022-11-06T04:22:56.633Z,99291.00
2022-11-06T04:25:03.991Z,99293.00
2022-11-06T04:26:52.749Z,99292.00
2022-11-06T04:28:36.782Z,99290.00
2022-11-06T04:30:13.604Z,99293.00
2022-11-06T04:32:02.335Z,99287.00
2022-11-06T04:33:50.223Z,99282.00
2022-11-06T04:35:35.421Z,99289.00
2022-11-06T04:37:16.201Z,99278.00
2022-11-06T04:39:02.100Z,99281.00
2022-11-06T04:40:48.137Z,99283.00
2022-11-06T04:42:30.346Z,99273.00
2022-11-06T04:44:10.873Z,99268.00
2022-11-06T04:45:50.786Z,99268.00
2022-11-06T04:47:26.193Z,99265.00
2022-11-06T04:49:03.771Z,99269.00
2022-11-06T04:50:44.009Z,99257.00
2022-11-06T04:52:22.498Z,99258.00
2022-11-06T04:53:57.037Z,99258.00
2022-11-06T04:55:31.440Z,99263.00
2022-11-06T04:57:05.760Z,99249.00
2022-11-06T04:58:39.561Z,99252.00
2022-11-06T05:00:15.851Z,99255.00
2022-11-06T05:01:49.185Z,99246.00
2022-11-06T05:03:22.398Z,99248.00
2022-11-06T05:04:57.004Z,99251.00
2022-11-06T05:06:30.552Z,99249.00
2022-11-06T05:08:03.265Z,99252.00
2022-11-06T05:09:36.465Z,99253.00
2022-11-06T05:11:09.871Z,99248.00
2022-11-06T05:12:43.116Z,99234.00
2022-11-06T05:14:16.240Z,99241.00
2022-11-06T05:15:49.444Z,99244.00
2022-11-06T05:17:22.670Z,99239.00
2022-11-06T05:18:55.818Z,99231.00
2022-11-06T05:20:30.464Z,99226.00
2022-11-06T05:22:21.261Z,99227.00
2022-11-06T05:23:53.421Z,99226.00
2022-11-06T05:25:27.096Z,99213.00
2022-11-06T05:27:00.323Z,99219.00
2022-11-06T05:28:33.785Z,99205.00
2022-11-06T05:30:09.350Z,99208.00
2022-11-06T05:31:42.612Z,99202.00
2022-11-06T05:33:15.720Z,99198.00
2022-11-06T05:34:48.840Z,99205.00
2022-11-06T05:36:23.565Z,99204.00
2022-11-06T05:38:00.690Z,99199.00
2022-11-06T05:39:37.703Z,99197.00
2022-11-06T05:41:13.968Z,99192.00
2022-11-06T05:42:47.410Z,99183.00
2022-11-06T05:44:20.711Z,99181.00
2022-11-06T05:45:54.445Z,99177.00
2022-11-06T05:47:27.690Z,99178.00
2022-11-06T05:49:01.066Z,99182.00
2022-11-06T05:50:34.216Z,99171.00
2022-11-06T05:52:11.516Z,99175.00
2022-11-06T05:53:44.632Z,99178.00
2022-11-06T05:55:18.273Z,99173.00
2022-11-06T05:56:51.377Z,99174.00
2022-11-06T05:58:24.541Z,99175.00
2022-11-06T05:59:57.638Z,99176.00
2022-11-06T06:01:30.926Z,99171.00
2022-11-06T06:03:04.724Z,99181.00
2022-11-06T06:04:38.134Z,99164.00
2022-11-06T06:06:11.361Z,99171.00
2022-11-06T06:07:45.957Z,99163.00
2022-11-06T06:09:19.125Z,99170.00
2022-11-06T06:10:52.370Z,99168.00
2022-11-06T06:12:26.404Z,99168.00
2022-11-06T06:14:00.523Z,99164.00
2022-11-06T06:15:33.709Z,99164.00
2022-11-06T06:17:07.261Z,99167.00
2022-11-06T06:18:40.374Z,99159.00
2022-11-06T06:20:14.384Z,99150.00
2022-11-06T06:21:47.573Z,99147.00
2022-11-06T06:23:22.208Z,99146.00
2022-11-06T06:24:55.526Z,99149.00
2022-11-06T06:26:28.852Z,99150.00
2022-11-06T06:28:02.185Z,99147.00
2022-11-06T06:29:35.681Z,99143.00
2022-11-06T06:31:10.078Z,99144.00
2022-11-06T06:32:43.466Z,99143.00
2022-11-06T06:34:17.002Z,99144.00
2022-11-06T06:35:50.410Z,99148.00
2022-11-06T06:37:23.576Z,99146.00
2022-11-06T06:38:58.082Z,99144.00
2022-11-06T06:40:31.445Z,99145.00
2022-11-06T06:42:04.943Z,99147.00
2022-11-06T06:43:38.231Z,99154.00
2022-11-06T06:45:11.838Z,99146.00
2022-11-06T06:46:45.053Z,99147.00
2022-11-06T06:48:18.568Z,99151.00
2022-11-06T06:49:51.924Z,99139.00
2022-11-06T06:51:25.156Z,99135.00
2022-11-06T06:52:59.101Z,99130.00
2022-11-06T06:54:33.612Z,99143.00
2022-11-06T06:56:08.017Z,99142.00
2022-11-06T06:57:41.277Z,99135.00
2022-11-06T06:59:14.514Z,99130.00
2022-11-06T07:00:48.335Z,99135.00
2022-11-06T07:02:21.789Z,99126.00
2022-11-06T07:03:58.714Z,99129.00
2022-11-06T07:05:36.954Z,99126.00
2022-11-06T07:07:10.081Z,99132.00
2022-11-06T07:08:43.377Z,99142.00
2022-11-06T07:10:18.319Z,99150.00
2022-11-06T07:11:51.465Z,99151.00
2022-11-06T07:13:24.766Z,99157.00
2022-11-06T07:14:58.058Z,99150.00
2022-11-06T07:16:32.373Z,99155.00
2022-11-06T07:18:06.663Z,99153.00
2022-11-06T07:19:40.004Z,99158.00
2022-11-06T07:21:14.625Z,99161.00
2022-11-06T07:22:47.857Z,99169.00
2022-11-06T07:24:21.225Z,99179.00
2022-11-06T07:25:56.081Z,99177.00
2022-11-06T07:27:30.082Z,99176.00
2022-11-06T07:29:03.355Z,99174.00
2022-11-06T07:30:38.528Z,99172.00
2022-11-06T07:32:11.956Z,99173.00
2022-11-06T07:33:45.268Z,99178.00
2022-11-06T07:35:18.685Z,99165.00
2022-11-06T07:36:51.936Z,99176.00
2022-11-06T07:38:25.133Z,99174.00
2022-11-06T07:39:58.397Z,99176.00
2022-11-06T07:41:32.874Z,99168.00
2022-11-06T07:43:07.508Z,99168.00
2022-11-06T07:44:40.733Z,99168.00
2022-11-06T07:46:14.592Z,99169.00
2022-11-06T07:47:47.825Z,99165.00
2022-11-06T07:49:21.002Z,99169.00
2022-11-06T07:50:54.411Z,99173.00
2022-11-06T07:52:27.736Z,99169.00
2022-11-06T07:54:01.003Z,99171.00
2022-11-06T07:55:37.844Z,99175.00
2022-11-06T07:57:15.671Z,99165.00
2022-11-06T07:58:48.842Z,99170.00
2022-11-06T08:00:22.333Z,99162.00
2022-11-06T08:01:55.757Z,99169.00
2022-11-06T08:03:30.075Z,99158.00
2022-11-06T08:05:03.445Z,99157.00
2022-11-06T08:06:36.663Z,99158.00
2022-11-06T08:08:11.206Z,99154.00
2022-11-06T08:09:44.739Z,99148.00
2022-11-06T08:11:18.358Z,99149.00
2022-11-06T08:12:52.840Z,99151.00
2022-11-06T08:14:26.036Z,99159.00
2022-11-06T08:15:59.285Z,99153.00
2022-11-06T08:17:32.637Z,99152.00
2022-11-06T08:19:06.051Z,99140.00
2022-11-06T08:20:40.926Z,99139.00
2022-11-06T08:22:14.127Z,99133.00
2022-11-06T08:23:47.326Z,99133.00
2022-11-06T08:25:20.522Z,99139.00
2022-11-06T08:26:54.283Z,99146.00
2022-11-06T08:28:30.575Z,99134.00
2022-11-06T08:30:04.265Z,99141.00
2022-11-06T08:31:37.452Z,99121.00
2022-11-06T08:33:11.696Z,99123.00
2022-11-06T08:34:45.947Z,99131.00
2022-11-06T08:36:19.304Z,99119.00
2022-11-06T08:37:52.464Z,99129.00
2022-11-06T08:39:25.769Z,99118.00
2022-11-06T08:40:59.159Z,99116.00
2022-11-06T08:42:32.376Z,99124.00
2022-11-06T08:44:07.215Z,99116.00
2022-11-06T08:45:42.959Z,99120.00
2022-11-06T08:47:16.205Z,99113.00
2022-11-06T08:48:49.813Z,99117.00
2022-11-06T08:50:23.429Z,99111.00
2022-11-06T08:51:56.725Z,99116.00
2022-11-06T08:53:30.045Z,99096.00
2022-11-06T08:55:03.923Z,99094.00
2022-11-06T08:56:37.181Z,99087.00
2022-11-06T08:58:11.468Z,99096.00
2022-11-06T08:59:45.978Z,99098.00
2022-11-06T09:01:19.315Z,99091.00
2022-11-06T09:02:52.683Z,99088.00
2022-11-06T09:04:25.862Z,99096.00
2022-11-06T09:05:59.088Z,99089.00
2022-11-06T09:07:32.273Z,99089.00
2022-11-06T09:09:05.655Z,99082.00
2022-11-06T09:10:40.906Z,99097.00
2022-11-06T09:12:14.145Z,99090.00
2022-11-06T09:13:47.292Z,99077.00
2022-11-06T09:15:22.232Z,99083.00
2022-11-06T09:16:55.459Z,99074.00
2022-11-06T09:18:28.819Z,99084.00
2022-11-06T09:20:02.132Z,99080.00
2022-11-06T09:21:35.955Z,99085.00
2022-11-06T09:23:15.659Z,99077.00
2022-11-06T09:25:03.134Z,99069.00
2022-11-06T09:26:37.289Z,99079.00
2022-11-06T09:28:10.480Z,99076.00
2022-11-06T09:29:44.508Z,99073.00
2022-11-06T09:31:19.087Z,99067.00
2022-11-06T09:32:55.014Z,99081.00
2022-11-06T09:34:28.286Z,99069.00
2022-11-06T09:36:04.827Z,99067.00
2022-11-06T09:37:38.089Z,99069.00
2022-11-06T09:39:11.404Z,99065.00
2022-11-06T09:40:52.357Z,99055.00
2022-11-06T09:42:38.121Z,99057.00
2022-11-06T09:44:35.049Z,99061.00
2022-11-06T09:46:18.982Z,99055.00
2022-11-06T09:48:00.412Z,99059.00
2022-11-06T09:49:41.783Z,99060.00
2022-11-06T09:51:27.571Z,99050.00
2022-11-06T09:53:09.353Z,99041.00
2022-11-06T09:54:52.080Z,99034.00
2022-11-06T09:56:32.957Z,99037.00
2022-11-06T09:58:14.429Z,99033.00
2022-11-06T09:59:49.746Z,99030.00
2022-11-06T10:01:27.818Z,99029.00
2022-11-06T10:03:13.244Z,99025.00
2022-11-06T10:04:56.767Z,99019.00
2022-11-06T10:06:31.098Z,99027.00
2022-11-06T10:08:08.210Z,99025.00
2022-11-06T10:09:41.504Z,99023.00
2022-11-06T10:11:51.650Z,99024.00
2022-11-06T10:13:45.112Z,99021.00
2022-11-06T10:15:28.825Z,99011.00
2022-11-06T10:17:14.845Z,99019.00
2022-11-06T10:19:08.024Z,99014.00
2022-11-06T10:20:52.448Z,99020.00
2022-11-06T10:22:35.042Z,99012.00
2022-11-06T10:24:24.571Z,99017.00
2022-11-06T10:26:12.986Z,99014.00
2022-11-06T10:28:01.789Z,99025.00
2022-11-06T10:29:57.849Z,99016.00
2022-11-06T10:31:39.975Z,99021.00
2022-11-06T10:33:34.222Z,99008.00
2022-11-06T10:35:20.647Z,99002.00
2022-11-06T10:36:59.084Z,98990.00
2022-11-06T10:38:39.241Z,99002.00
2022-11-06T10:40:20.143Z,98996.00
2022-11-06T10:42:01.238Z,98989.00
2022-11-06T10:43:41.113Z,98989.00
2022-11-06T10:45:18.300Z,98988.00
2022-11-06T10:46:56.389Z,98977.00
2022-11-06T10:48:37.099Z,98962.00
2022-11-06T10:50:18.741Z,98966.00
2022-11-06T10:52:26.358Z,98973.00
2022-11-06T10:54:19.036Z,98964.00
2022-11-06T10:56:22.528Z,98970.00
2022-11-06T10:58:02.234Z,98964.00
2022-11-06T10:59:35.807Z,98952.00
2022-11-06T11:01:15.535Z,98968.00
2022-11-06T11:02:54.621Z,98968.00
2022-11-06T11:04:27.870Z,98960.00
2022-11-06T11:06:04.126Z,98967.00
2022-11-06T11:07:37.558Z,98964.00
2022-11-06T11:09:32.919Z,98960.00
2022-11-06T11:11:17.143Z,98957.00
2022-11-06T11:12:51.216Z,98942.00
2022-11-06T11:14:27.276Z,98949.00
2022-11-06T11:16:00.595Z,98945.00
2022-11-06T11:17:33.955Z,98945.00
2022-11-06T11:19:25.110Z,98941.00
2022-11-06T11:21:16.275Z,98932.00
2022-11-06T11:23:15.416Z,98913.00
2022-11-06T11:25:03.046Z,98917.00
2022-11-06T11:26:43.731Z,98903.00
2022-11-06T11:28:34.767Z,98902.00
2022-11-06T11:30:22.883Z,98892.00
2022-11-06T11:32:00.622Z,98901.00
2022-11-06T11:33:35.073Z,98895.00
2022-11-06T11:35:11.985Z,98882.00
2022-11-06T11:37:00.964Z,98875.00
2022-11-06T11:38:38.421Z,98879.00
2022-11-06T11:40:36.351Z,98865.00
2022-11-06T11:42:29.397Z,98873.00
2022-11-06T11:44:08.295Z,98871.00
2022-11-06T11:45:41.580Z,98869.00
2022-11-06T11:47:25.024Z,98867.00
2022-11-06T11:49:00.346Z,98868.00
2022-11-06T11:50:35.063Z,98869.00
2022-11-06T11:52:17.405Z,98853.00
2022-11-06T11:53:51.956Z,98858.00
2022-11-06T11:55:29.260Z,98855.00
2022-11-06T11:57:07.145Z,98850.00
2022-11-06T11:58:41.140Z,98852.00
2022-11-06T12:00:20.423Z,98857.00
2022-11-06T12:01:55.620Z,98848.00
2022-11-06T12:03:34.980Z,98841.00
2022-11-06T12:05:14.731Z,98839.00
2022-11-06T12:07:01.761Z,98830.00
2022-11-06T12:08:40.573Z,98827.00
2022-11-06T12:10:28.128Z,98836.00
2022-11-06T12:12:03.179Z,98827.00
2022-11-06T12:13:36.461Z,98822.00
2022-11-06T12:15:22.204Z,98825.00
2022-11-06T12:17:03.289Z,98812.00
2022-11-06T12:18:41.352Z,98809.00
2022-11-06T12:20:20.158Z,98803.00
2022-11-06T12:22:01.681Z,98812.00
2022-11-06T12:23:44.184Z,98824.00
2022-11-06T12:25:24.333Z,98798.00
2022-11-06T12:27:05.159Z,98794.00
2022-11-06T12:28:42.285Z,98787.00
2022-11-06T12:30:19.331Z,98791.00
2022-11-06T12:32:03.128Z,98792.00
2022-11-06T12:34:05.025Z,98780.00
2022-11-06T12:35:39.027Z,98772.00
2022-11-06T12:37:23.609Z,98771.00
2022-11-06T12:39:05.026Z,98772.00
2022-11-06T12:40:41.394Z,98772.00
2022-11-06T12:42:16.893Z,98755.00
2022-11-06T12:43:52.650Z,98761.00
2022-11-06T12:45:43.093Z,98752.00
2022-11-06T12:47:34.407Z,98748.00
2022-11-06T12:50:02.097Z,98734.00
2022-11-06T12:51:48.561Z,98727.00
2022-11-06T12:53:40.277Z,98728.00
2022-11-06T12:55:26.288Z,98739.00
2022-11-06T12:57:14.044Z,98726.00
2022-11-06T12:59:23.026Z,98731.00
2022-11-06T13:01:09.119Z,98725.00
2022-11-06T13:03:08.853Z,98719.00
2022-11-06T13:04:54.852Z,98716.00
2022-11-06T13:06:59.374Z,98705.00
2022-11-06T13:08:44.213Z,98714.00
2022-11-06T13:10:36.829Z,98702.00
2022-11-06T13:12:20.788Z,98702.00
2022-11-06T13:14:15.572Z,98709.00
2022-11-06T13:16:01.181Z,98697.00
2022-11-06T13:17:44.985Z,98711.00
2022-11-06T13:19:29.642Z,98704.00
2022-11-06T13:21:11.690Z,98723.00
2022-11-06T13:22:52.802Z,98718.00
2022-11-06T13:24:35.106Z,98717.00
2022-11-06T13:26:18.473Z,98712.00
2022-11-06T13:27:59.494Z,98717.00
2022-11-06T13:29:32.938Z,98704.00
2022-11-06T13:31:10.720Z,98696.00
2022-11-06T13:32:53.764Z,98708.00
2022-11-06T13:34:32.686Z,98706.00
2022-11-06T13:36:08.163Z,98702.00
2022-11-06T13:37:48.361Z,98694.00
2022-11-06T13:39:30.755Z,98706.00
2022-11-06T13:41:15.574Z,98703.00
2022-11-06T13:42:55.528Z,98703.00
2022-11-06T13:44:29.558Z,98697.00
2022-11-06T13:46:13.277Z,98701.00
2022-11-06T13:48:08.346Z,98699.00
2022-11-06T13:49:58.092Z,98692.00
2022-11-06T13:51:46.433Z,98691.00
2022-11-06T13:53:28.533Z,98692.00
2022-11-06T13:55:15.234Z,98687.00
2022-11-06T13:57:13.239Z,98698.00
2022-11-06T13:59:34.212Z,98694.00
2022-11-06T14:01:25.508Z,98693.00
2022-11-06T14:04:07.019Z,98698.00
2022-11-06T14:06:05.131Z,98694.00
2022-11-06T14:07:39.951Z,98685.00
2022-11-06T14:09:20.144Z,98681.00
2022-11-06T14:11:00.615Z,98683.00
2022-11-06T14:12:35.609Z,98677.00
2022-11-06T14:14:14.940Z,98676.00
2022-11-06T14:15:49.078Z,98669.00
2022-11-06T14:17:25.546Z,98665.00
2022-11-06T14:19:05.002Z,98674.00
2022-11-06T14:20:40.379Z,98662.00
2022-11-06T14:22:29.323Z,98652.00
2022-11-06T14:24:29.928Z,98653.00
2022-11-06T14:26:08.680Z,98674.00
2022-11-06T14:28:07.570Z,98674.00
2022-11-06T14:30:07.700Z,98671.00
2022-11-06T14:32:01.209Z,98681.00
2022-11-06T14:34:01.661Z,98680.00
2022-11-06T14:35:53.619Z,98663.00
2022-11-06T14:37:47.613Z,98665.00
2022-11-06T14:40:14.754Z,98666.00
2022-11-06T14:41:59.175Z,98678.00
2022-11-06T14:43:35.627Z,98674.00
2022-11-06T14:45:16.540Z,98673.00
2022-11-06T14:46:53.496Z,98671.00
2022-11-06T14:48:31.916Z,98668.00
2022-11-06T14:50:24.087Z,98661.00
2022-11-06T14:52:05.544Z,98669.00
2022-11-06T14:53:47.719Z,98662.00
2022-11-06T14:55:31.327Z,98659.00
2022-11-06T14:57:05.598Z,98657.00
2022-11-06T14:58:49.752Z,98659.00
2022-11-06T15:00:41.068Z,98661.00
2022-11-06T15:02:23.089Z,98642.00
2022-11-06T15:03:59.797Z,98656.00
2022-11-06T15:05:42.121Z,98649.00
2022-11-06T15:08:03.250Z,98648.00
2022-11-06T15:09:47.772Z,98640.00
2022-11-06T15:11:57.882Z,98637.00
2022-11-06T15:13:31.327Z,98629.00
2022-11-06T15:15:17.701Z,98630.00
2022-11-06T15:16:55.465Z,98616.00
2022-11-06T15:18:30.311Z,98616.00
2022-11-06T15:20:15.907Z,98613.00
2022-11-06T15:21:55.746Z,98630.00
2022-11-06T15:23:35.377Z,98630.00
2022-11-06T15:25:22.933Z,98625.00
2022-11-06T15:27:05.637Z,98633.00
2022-11-06T15:28:47.291Z,98646.00
2022-11-06T15:30:22.338Z,98653.00
2022-11-06T15:32:04.901Z,98656.00
2022-11-06T15:33:54.470Z,98666.00
2022-11-06T15:35:36.594Z,98658.00
2022-11-06T15:37:14.050Z,98661.00
2022-11-06T15:38:47.268Z,98655.00
2022-11-06T15:40:28.613Z,98657.00
2022-11-06T15:42:02.151Z,98665.00
2022-11-06T15:43:37.750Z,98661.00
2022-11-06T15:45:25.135Z,98667.00
2022-11-06T15:47:00.664Z,98657.00
2022-11-06T15:48:34.774Z,98662.00
2022-11-06T15:50:16.466Z,98657.00
2022-11-06T15:51:56.121Z,98657.00
2022-11-06T15:53:30.789Z,98659.00
2022-11-06T15:55:06.363Z,98643.00
2022-11-06T15:56:40.063Z,98655.00
2022-11-06T15:58:31.091Z,98645.00
2022-11-06T16:00:19.281Z,98647.00
2022-11-06T16:01:53.897Z,98651.00
2022-11-06T16:03:31.246Z,98644.00
2022-11-06T16:05:04.957Z,98656.00
2022-11-06T16:06:38.921Z,98656.00
2022-11-06T16:08:15.813Z,98660.00
2022-11-06T16:09:52.464Z,98657.00
2022-11-06T16:11:26.004Z,98670.00
2022-11-06T16:12:59.753Z,98672.00
2022-11-06T16:14:39.016Z,98678.00
2022-11-06T16:16:33.603Z,98671.00
2022-11-06T16:18:16.954Z,98655.00
2022-11-06T16:19:52.346Z,98673.00
2022-11-06T16:21:30.725Z,98679.00
2022-11-06T16:23:05.598Z,98680.00
2022-11-06T16:24:46.616Z,98687.00
2022-11-06T16:26:25.673Z,98697.00
2022-11-06T16:27:59.197Z,98683.00
2022-11-06T16:29:32.954Z,98667.00
2022-11-06T16:31:14.562Z,98653.00
2022-11-06T16:32:48.322Z,98665.00
2022-11-06T16:34:37.417Z,98654.00
2022-11-06T16:36:14.398Z,98665.00
2022-11-06T16:37:47.600Z,98663.00
2022-11-06T16:39:50.881Z,98654.00
2022-11-06T16:42:04.257Z,98666.00
2022-11-06T16:43:37.975Z,98647.00
2022-11-06T16:45:19.598Z,98647.00
2022-11-06T16:47:18.716Z,98647.00
2022-11-06T16:48:51.915Z,98658.00
2022-11-06T16:50:46.383Z,98651.00
2022-11-06T16:52:25.812Z,98650.00
2022-11-06T16:54:01.618Z,98636.00
2022-11-06T16:55:34.964Z,98603.00
2022-11-06T16:57:17.089Z,98587.00
2022-11-06T16:58:53.615Z,98563.00
2022-11-06T17:00:30.981Z,98575.00
2022-11-06T17:02:05.243Z,98573.00
2022-11-06T17:03:48.324Z,98560.00
2022-11-06T17:05:24.713Z,98547.00
2022-11-06T17:06:59.737Z,98577.00
2022-11-06T17:08:37.599Z,98544.00
2022-11-06T17:10:43.088Z,98546.00
2022-11-06T17:12:18.032Z,98549.00
2022-11-06T17:13:52.725Z,98542.00
2022-11-06T17:15:26.364Z,98541.00
2022-11-06T17:17:02.475Z,98537.00
2022-11-06T17:18:40.107Z,98542.00
2022-11-06T17:20:18.206Z,98527.00
2022-11-06T17:21:52.659Z,98538.00
2022-11-06T17:23:28.957Z,98530.00
2022-11-06T17:25:02.093Z,98528.00
2022-11-06T17:26:44.760Z,98547.00
2022-11-06T17:28:19.969Z,98542.00
2022-11-06T17:29:53.185Z,98536.00
2022-11-06T17:31:28.020Z,98537.00
2022-11-06T17:33:01.059Z,98553.00
2022-11-06T17:34:34.407Z,98545.00
2022-11-06T17:36:08.975Z,98538.00
2022-11-06T17:37:42.103Z,98546.00
2022-11-06T17:39:15.420Z,98550.00
2022-11-06T17:40:50.510Z,98543.00
2022-11-06T17:42:23.660Z,98544.00
2022-11-06T17:43:59.045Z,98554.00
2022-11-06T17:45:32.201Z,98553.00
2022-11-06T17:47:05.809Z,98545.00
2022-11-06T17:48:38.971Z,98544.00
2022-11-06T17:50:12.156Z,98565.00
2022-11-06T17:51:50.458Z,98545.00
2022-11-06T17:53:33.853Z,98549.00
2022-11-06T17:55:08.941Z,98556.00
2022-11-06T17:56:43.960Z,98545.00
2022-11-06T17:58:17.317Z,98545.00
2022-11-06T17:59:52.284Z,98542.00
2022-11-06T18:01:29.288Z,98539.00
2022-11-06T18:03:03.727Z,98538.00
2022-11-06T18:04:40.474Z,98529.00
2022-11-06T18:06:16.352Z,98517.00
2022-11-06T18:07:49.666Z,98520.00
2022-11-06T18:09:24.848Z,98516.00
2022-11-06T18:10:58.731Z,98513.00
2022-11-06T18:12:31.960Z,98511.00
2022-11-06T18:14:05.392Z,98482.00
2022-11-06T18:15:40.490Z,98493.00
2022-11-06T18:17:13.975Z,98497.00
2022-11-06T18:18:48.989Z,98499.00
2022-11-06T18:20:22.182Z,98498.00
2022-11-06T18:21:56.708Z,98511.00
2022-11-06T18:23:30.377Z,98496.00
2022-11-06T18:25:03.540Z,98489.00
2022-11-06T18:26:38.377Z,98491.00
2022-11-06T18:28:11.571Z,98500.00
2022-11-06T18:29:44.725Z,98492.00
2022-11-06T18:31:20.469Z,98489.00
2022-11-06T18:32:53.757Z,98493.00
2022-11-06T18:34:27.146Z,98490.00
2022-11-06T18:36:05.505Z,98490.00
2022-11-06T18:37:40.244Z,98493.00
2022-11-06T18:39:13.418Z,98492.00
2022-11-06T18:40:51.366Z,98484.00
2022-11-06T18:42:25.165Z,98479.00
2022-11-06T18:43:59.777Z,98468.00
2022-11-06T18:45:33.237Z,98481.00
2022-11-06T18:47:07.893Z,98478.00
2022-11-06T18:48:42.530Z,98479.00
2022-11-06T18:50:15.981Z,98491.00
2022-11-06T18:51:49.218Z,98479.00
2022-11-06T18:53:22.630Z,98485.00
2022-11-06T18:55:00.611Z,98492.00
2022-11-06T18:56:35.780Z,98490.00
2022-11-06T18:58:09.051Z,98506.00
2022-11-06T18:59:42.295Z,98503.00
2022-11-06T19:01:18.777Z,98504.00
2022-11-06T19:02:53.516Z,98505.00
2022-11-06T19:04:27.853Z,98504.00
2022-11-06T19:06:01.889Z,98498.00
2022-11-06T19:07:35.141Z,98506.00
2022-11-06T19:09:10.526Z,98520.00
2022-11-06T19:10:43.989Z,98520.00
2022-11-06T19:12:17.165Z,98521.00
2022-11-06T19:13:50.417Z,98523.00
2022-11-06T19:15:23.726Z,98530.00
2022-11-06T19:16:57.053Z,98528.00
2022-11-06T19:18:33.440Z,98524.00
2022-11-06T19:20:14.728Z,98528.00
2022-11-06T19:21:48.465Z,98527.00
2022-11-06T19:23:22.375Z,98513.00